Time;durP1;ratioP1;P1;durP2;ratioP2;P2;SDS_P1;SDS_P2;PMS_P1;PMS_P2;Temp;Humidity;BMP_temperature;BMP_pressure;BME280_temperature;BME280_humidity;BME280_pressure;Samples;Min_cycle;Max_cycle;Signal;HPM_P1;HPM_P2
2022/03/24 00:02:11;;;;;;;93.13;68.50;;;;;;;5.36;55.61;100636.84;1684492;83;21500;-73
2022/03/24 00:04:40;;;;;;;87.07;68.00;;;;;;;5.34;55.59;100630.88;1658269;84;21591;-74
2022/03/24 00:07:07;;;;;;;96.97;71.37;;;;;;;5.32;55.66;100622.26;1686025;83;21086;-73
2022/03/24 00:09:34;;;;;;;85.93;66.03;;;;;;;5.28;55.75;100626.18;1691582;83;21462;-73
2022/03/24 00:12:01;;;;;;;90.17;67.57;;;;;;;5.26;55.96;100623.18;1656338;85;21106;-73
2022/03/24 00:14:29;;;;;;;87.83;65.47;;;;;;;5.21;56.11;100616.17;1689556;83;21047;-73
2022/03/24 00:16:57;;;;;;;86.27;64.10;;;;;;;5.17;56.23;100613.98;1690720;83;21013;-74
2022/03/24 00:19:26;;;;;;;90.73;67.30;;;;;;;5.11;56.27;100609.29;1691576;83;22263;-73
2022/03/24 00:21:53;;;;;;;87.43;65.23;;;;;;;5.07;56.50;100602.14;1692373;83;21106;-73
2022/03/24 00:24:20;;;;;;;91.20;64.43;;;;;;;5.04;56.78;100597.96;1660023;83;21045;-73
2022/03/24 00:26:47;;;;;;;84.20;65.17;;;;;;;4.99;56.91;100588.81;1657881;85;21118;-75
2022/03/24 00:29:14;;;;;;;86.87;64.17;;;;;;;4.96;57.01;100589.13;1661619;85;21126;-73
2022/03/24 00:31:41;;;;;;;94.43;67.33;;;;;;;4.92;57.14;100585.94;1662360;85;21104;-73
2022/03/24 00:34:10;;;;;;;94.77;72.17;;;;;;;4.89;57.22;100579.61;1660607;85;21043;-73
2022/03/24 00:36:39;;;;;;;92.90;68.50;;;;;;;4.89;57.31;100575.65;1661688;85;21010;-73
2022/03/24 00:39:06;;;;;;;94.87;68.43;;;;;;;4.91;57.42;100571.55;1655226;85;21000;-73
2022/03/24 00:41:35;;;;;;;93.77;72.53;;;;;;;4.90;57.46;100562.80;1662740;85;21341;-73
2022/03/24 00:44:02;;;;;;;95.13;70.60;;;;;;;4.89;57.63;100563.77;1655374;85;21074;-73
2022/03/24 00:46:31;;;;;;;90.87;70.07;;;;;;;4.90;57.62;100554.02;1650491;85;21567;-73
2022/03/24 00:49:01;;;;;;;100.47;73.37;;;;;;;4.90;57.58;100553.55;1644809;85;21067;-73
2022/03/24 00:51:28;;;;;;;100.20;74.33;;;;;;;4.93;57.59;100545.81;1646513;85;21079;-72
2022/03/24 00:53:57;;;;;;;92.73;73.63;;;;;;;4.94;57.65;100542.20;1660999;85;21454;-72
2022/03/24 00:56:24;;;;;;;95.07;73.43;;;;;;;4.48;57.68;100458.94;1647775;85;21036;-73
2022/03/24 00:58:50;;;;;;;;;;;;;;;4.92;57.75;100536.24;1659524;85;21008;-73
2022/03/24 01:01:17;;;;;;;89.57;69.13;;;;;;;4.88;57.81;100535.70;1634734;85;20248;-72
2022/03/24 01:03:46;;;;;;;100.07;72.47;;;;;;;4.46;58.13;100475.41;1636600;86;21026;-72
2022/03/24 01:06:16;;;;;;;99.20;72.87;;;;;;;4.78;58.17;100526.97;1644424;86;21021;-72
2022/03/24 01:08:45;;;;;;;97.93;74.27;;;;;;;4.75;58.29;100522.83;1645075;86;21175;-72
2022/03/24 01:11:15;;;;;;;96.37;75.87;;;;;;;4.73;58.47;100519.97;1641638;86;21087;-72
2022/03/24 01:13:44;;;;;;;95.20;74.93;;;;;;;4.72;58.50;100517.00;1629001;86;21070;-72
2022/03/24 01:16:13;;;;;;;95.93;74.63;;;;;;;4.70;58.51;100511.86;1664147;85;21157;-72
2022/03/24 01:18:42;;;;;;;106.00;76.80;;;;;;;4.70;58.60;100506.58;1650462;85;21168;-72
2022/03/24 01:21:11;;;;;;;100.57;77.63;;;;;;;4.71;58.63;100507.41;1655736;85;21099;-72
2022/03/24 01:23:40;;;;;;;101.50;78.93;;;;;;;4.72;58.50;100509.91;1663196;85;21082;-72
2022/03/24 01:26:09;;;;;;;102.27;79.47;;;;;;;4.70;58.54;100506.58;1660924;85;21027;-73
2022/03/24 01:28:36;;;;;;;102.60;78.33;;;;;;;4.69;58.58;100497.02;1662885;85;21083;-72
2022/03/24 01:31:03;;;;;;;103.00;76.60;;;;;;;4.66;58.56;100502.57;1645262;86;21097;-73
2022/03/24 01:33:30;;;;;;;101.50;78.53;;;;;;;4.62;58.76;100498.56;1645078;84;21082;-72
2022/03/24 01:35:59;;;;;;;100.07;76.60;;;;;;;4.54;58.80;100496.66;1682497;84;21090;-72
2022/03/24 01:38:28;;;;;;;104.80;76.50;;;;;;;4.50;59.01;100491.30;1674406;84;21070;-72
2022/03/24 01:40:58;;;;;;;98.50;78.20;;;;;;;4.48;59.09;100489.30;1680970;84;21090;-73
2022/03/24 01:43:24;;;;;;;100.13;77.97;;;;;;;4.41;59.22;100489.55;1678916;84;21074;-73
2022/03/24 01:45:53;;;;;;;107.93;81.13;;;;;;;4.35;59.45;100484.36;1654986;84;21669;-73
2022/03/24 01:48:21;;;;;;;107.07;79.97;;;;;;;4.30;59.62;100476.04;1658964;85;21090;-72
2022/03/24 01:50:50;;;;;;;108.43;85.53;;;;;;;4.26;59.68;100475.50;1663052;85;21048;-73
2022/03/24 01:53:18;;;;;;;107.00;84.50;;;;;;;4.30;59.48;100468.13;1660951;85;21218;-73
2022/03/24 01:55:48;;;;;;;112.87;84.23;;;;;;;4.38;59.34;100466.08;1655338;85;21007;-74
2022/03/24 01:58:15;;;;;;;110.73;84.23;;;;;;;4.44;59.17;100453.12;1652128;85;21039;-73
2022/03/24 02:00:45;;;;;;;110.20;82.53;;;;;;;4.54;58.94;100461.48;1655276;84;21074;-73
2022/03/24 02:03:14;;;;;;;107.70;82.60;;;;;;;4.59;58.84;100456.61;1669996;84;21115;-74
2022/03/24 02:05:42;;;;;;;107.90;81.77;;;;;;;4.64;58.69;100448.59;1680599;84;21138;-74
2022/03/24 02:08:10;;;;;;;116.30;85.00;;;;;;;4.66;58.65;100446.63;1648384;85;21049;-74
2022/03/24 02:10:39;;;;;;;103.20;80.27;;;;;;;4.68;58.67;100439.39;1642387;86;21047;-73
2022/03/24 02:13:08;;;;;;;107.03;81.13;;;;;;;4.68;58.67;100431.97;1629456;86;21065;-74
2022/03/24 02:15:36;;;;;;;102.17;80.60;;;;;;;4.63;58.77;100431.56;1687739;83;21206;-73
2022/03/24 02:18:02;;;;;;;109.27;81.97;;;;;;;4.58;58.94;100433.84;1680312;84;21050;-73
2022/03/24 02:20:33;;;;;;;106.97;79.03;;;;;;;4.55;59.10;100433.63;1635281;87;21137;-73
2022/03/24 02:23:01;;;;;;;101.40;80.80;;;;;;;4.53;59.15;100429.48;1692868;83;21074;-73
2022/03/24 02:25:32;;;;;;;110.63;85.27;;;;;;;4.51;59.21;100428.80;1673944;83;21070;-73
2022/03/24 02:28:01;;;;;;;108.73;84.47;;;;;;;4.47;59.24;100433.04;1634257;87;21954;-73
2022/03/24 02:30:29;;;;;;;107.80;82.33;;;;;;;4.44;59.31;100432.00;1682610;83;21082;-73
2022/03/24 02:32:59;;;;;;;105.67;80.97;;;;;;;4.41;59.43;100431.49;1685245;83;21311;-72
2022/03/24 02:35:26;;;;;;;102.33;81.07;;;;;;;4.37;59.57;100433.59;1676803;83;21077;-72
2022/03/24 02:37:55;;;;;;;102.53;79.40;;;;;;;4.31;59.68;100430.19;1683037;83;21111;-73
2022/03/24 02:40:21;;;;;;;;;;;;;;;4.27;59.69;100436.24;1686665;83;21101;-72
2022/03/24 02:42:49;;;;;;;98.55;77.78;;;;;;;4.22;59.83;100435.02;1694817;83;20134;-73
2022/03/24 02:45:17;;;;;;;108.67;81.37;;;;;;;4.05;59.96;100428.68;1688905;83;21491;-73
2022/03/24 02:47:46;;;;;;;110.23;84.83;;;;;;;4.02;60.08;100423.22;1676894;84;21345;-73
2022/03/24 02:50:16;;;;;;;109.03;85.70;;;;;;;4.04;59.94;100418.62;1688521;84;21082;-73
2022/03/24 02:52:43;;;;;;;109.47;84.70;;;;;;;4.08;59.95;100420.00;1692305;83;21020;-73
2022/03/24 02:55:10;;;;;;;;;;;;;;;4.12;59.89;100413.95;1693150;83;21078;-73
2022/03/24 02:57:37;;;;;;;106.30;79.95;;;;;;;4.15;60.01;100423.40;1687603;84;20158;-73
2022/03/24 03:00:07;;;;;;;106.20;80.13;;;;;;;4.05;60.08;100420.77;1697027;84;21118;-73
2022/03/24 03:02:35;;;;;;;106.33;82.43;;;;;;;4.00;60.18;100421.71;1678583;83;21006;-74
2022/03/24 03:05:05;;;;;;;94.07;73.83;;;;;;;3.97;60.28;100416.70;1661905;84;21029;-73
2022/03/24 03:07:33;;;;;;;95.90;72.40;;;;;;;3.97;59.66;100413.58;1638782;86;21058;-72
2022/03/24 03:10:01;;;;;;;112.83;80.60;;;;;;;4.05;59.11;100413.70;1637951;86;22544;-72
2022/03/24 03:12:27;;;;;;;94.73;72.03;;;;;;;4.14;58.77;100409.36;1674176;83;21102;-72
2022/03/24 03:14:56;;;;;;;96.63;72.40;;;;;;;4.21;58.76;100402.53;1703624;83;21041;-73
2022/03/24 03:17:23;;;;;;;94.83;73.33;;;;;;;4.28;58.18;100405.43;1693329;83;20967;-73
2022/03/24 03:19:51;;;;;;;89.83;67.47;;;;;;;4.34;58.11;100395.60;1689379;83;21043;-73
2022/03/24 03:22:18;;;;;;;;;;;;;;;4.39;57.78;100403.06;1702859;83;21118;-73
2022/03/24 03:24:45;;;;;;;97.60;71.20;;;;;;;4.40;57.24;100396.33;1704082;83;20171;-73
2022/03/24 03:27:14;;;;;;;96.47;69.40;;;;;;;4.38;57.21;100390.37;1703870;83;21149;-73
2022/03/24 03:29:42;;;;;;;97.97;69.20;;;;;;;4.43;56.65;100386.80;1703189;83;21331;-73
2022/03/24 03:32:11;;;;;;;89.57;67.37;;;;;;;4.49;56.21;100384.89;1702323;83;21118;-73
2022/03/24 03:34:41;;;;;;;92.50;69.80;;;;;;;4.57;55.98;100390.75;1701163;83;21088;-73
2022/03/24 03:37:09;;;;;;;90.93;67.83;;;;;;;4.60;55.84;100383.86;1697832;83;22065;-73
2022/03/24 03:39:37;;;;;;;97.13;68.80;;;;;;;4.59;55.58;100384.83;1698036;83;21166;-73
2022/03/24 03:42:04;;;;;;;94.58;71.02;;;;;;;4.62;55.37;100377.12;1695122;83;21120;-73
2022/03/24 03:44:32;;;;;;;96.63;68.73;;;;;;;4.68;54.96;100379.16;1699772;83;21125;-73
2022/03/24 03:46:59;;;;;;;;;;;;;;;4.75;54.62;100385.51;1701553;83;21932;-74
2022/03/24 03:49:25;;;;;;;92.93;67.17;;;;;;;4.83;54.25;100378.98;1696294;83;20433;-74
2022/03/24 03:51:52;;;;;;;;;;;;;;;4.86;53.95;100385.29;1690538;84;21196;-74
2022/03/24 03:54:20;;;;;;;96.17;64.40;;;;;;;4.97;53.56;100396.14;1693899;83;20361;-73
2022/03/24 03:56:47;;;;;;;91.70;65.90;;;;;;;5.04;53.07;100404.27;1691006;83;21037;-73
2022/03/24 03:59:15;;;;;;;99.47;67.60;;;;;;;5.18;52.51;100399.80;1677629;84;21117;-73
2022/03/24 04:01:43;;;;;;;92.40;67.93;;;;;;;5.35;51.99;100402.08;1688987;83;22174;-72
2022/03/24 04:04:12;;;;;;;83.90;61.53;;;;;;;5.51;51.61;100402.69;1704586;82;21626;-74
2022/03/24 04:06:40;;;;;;;93.53;64.13;;;;;;;5.63;50.74;100399.30;1696896;83;21640;-73
2022/03/24 04:09:09;;;;;;;91.63;63.53;;;;;;;5.78;50.52;100391.62;1645103;85;21069;-73
2022/03/24 04:11:38;;;;;;;84.00;58.53;;;;;;;5.90;49.94;100393.55;1677847;84;21521;-73
2022/03/24 04:14:05;;;;;;;82.73;58.43;;;;;;;6.02;49.59;100394.45;1673725;83;21064;-73
2022/03/24 04:16:32;;;;;;;82.10;58.07;;;;;;;6.15;49.19;100387.91;1703986;83;21104;-74
2022/03/24 04:19:00;;;;;;;79.47;57.83;;;;;;;6.33;48.72;100389.98;1674342;84;21096;-74
2022/03/24 04:21:27;;;;;;;79.20;56.93;;;;;;;6.56;48.41;100388.89;1682582;83;21606;-72
2022/03/24 04:23:54;;;;;;;;;;;;;;;6.83;47.32;100384.32;1688673;84;21143;-73
2022/03/24 04:26:21;;;;;;;86.50;57.57;;;;;;;7.06;47.05;100387.16;1701722;83;20448;-74
2022/03/24 04:28:51;;;;;;;82.30;58.37;;;;;;;7.25;46.17;100394.47;1691879;82;21080;-73
2022/03/24 04:31:17;;;;;;;87.60;62.33;;;;;;;7.51;45.81;100392.47;1690701;83;21032;-73
2022/03/24 04:33:47;;;;;;;84.77;60.67;;;;;;;7.75;44.97;100402.74;1684160;84;21035;-73
2022/03/24 04:36:13;;;;;;;86.47;62.10;;;;;;;7.95;44.93;100406.69;1675023;84;21118;-74
2022/03/24 04:38:41;;;;;;;86.70;62.13;;;;;;;8.17;44.32;100402.97;1664344;84;21121;-74
2022/03/24 04:42:25;;;;;;;95.10;62.88;;;;;;;8.61;43.34;100399.84;1815129;77;22274;-73
2022/03/24 04:44:53;;;;;;;92.77;63.63;;;;;;;8.90;43.07;100410.30;1741313;78;21036;-74
2022/03/24 04:47:20;;;;;;;99.33;68.90;;;;;;;9.24;42.28;100405.09;1721307;81;20994;-74
2022/03/24 04:49:48;;;;;;;101.73;69.53;;;;;;;9.54;41.58;100408.16;1719472;81;21570;-74
2022/03/24 04:52:16;;;;;;;107.13;73.73;;;;;;;9.77;40.63;100413.13;1739126;81;21554;-73
2022/03/24 04:54:45;;;;;;;90.90;69.20;;;;;;;9.86;39.91;100416.84;1727056;81;20998;-73
2022/03/24 04:57:13;;;;;;;104.20;70.93;;;;;;;9.80;40.29;100406.94;1751165;80;21708;-73
2022/03/24 04:59:40;;;;;;;107.03;71.20;;;;;;;9.89;40.15;100407.17;1751848;80;21024;-73
2022/03/24 05:02:08;;;;;;;100.27;68.87;;;;;;;10.10;39.77;100408.30;1760367;79;20993;-74
2022/03/24 05:04:38;;;;;;;96.80;67.87;;;;;;;10.35;39.00;100404.87;1757860;80;21506;-75
2022/03/24 05:07:05;;;;;;;95.67;63.93;;;;;;;10.60;38.79;100412.03;1751065;80;22265;-75
2022/03/24 05:09:32;;;;;;;95.93;64.83;;;;;;;10.88;38.60;100409.48;1751619;80;21063;-74
2022/03/24 05:11:59;;;;;;;91.53;62.57;;;;;;;11.13;37.46;100409.64;1752996;79;21072;-73
2022/03/24 05:14:26;;;;;;;87.87;60.27;;;;;;;11.23;37.29;100409.66;1737881;80;21090;-74
2022/03/24 05:16:56;;;;;;;82.43;58.20;;;;;;;11.39;37.11;100414.41;1748875;80;21020;-74
2022/03/24 05:19:24;;;;;;;81.37;58.10;;;;;;;11.56;36.61;100412.30;1756773;80;21012;-74
2022/03/24 05:21:55;;;;;;;71.10;53.23;;;;;;;11.61;36.23;100415.22;1750410;80;21099;-74
2022/03/24 05:24:22;;;;;;;69.87;52.07;;;;;;;11.80;36.49;100417.72;1761342;79;21004;-74
2022/03/24 05:26:49;;;;;;;78.07;52.88;;;;;;;12.08;35.71;100409.72;1755205;80;21032;-75
2022/03/24 05:29:16;;;;;;;69.67;50.80;;;;;;;12.09;35.44;100414.03;1753651;80;21040;-74
2022/03/24 05:31:45;;;;;;;66.35;44.08;;;;;;;11.95;35.77;100417.66;1747023;80;21033;-75
2022/03/24 05:34:12;;;;;;;58.37;43.63;;;;;;;11.92;35.49;100402.83;1752953;80;20992;-75
2022/03/24 05:36:41;;;;;;;51.97;40.27;;;;;;;11.99;35.46;100417.58;1761359;80;21516;-74
2022/03/24 05:39:08;;;;;;;54.45;38.95;;;;;;;11.92;35.64;100418.03;1755155;80;21523;-75
2022/03/24 05:41:36;;;;;;;52.50;36.50;;;;;;;11.43;35.52;100352.46;1756636;80;21159;-75
2022/03/24 05:44:04;;;;;;;48.73;38.70;;;;;;;11.60;36.02;100418.89;1737066;80;21010;-72
2022/03/24 05:46:41;;;;;;;51.23;38.40;;;;;;;11.53;36.41;100427.34;1744549;80;21087;-74
2022/03/24 05:49:14;;;;;;;45.10;34.53;;;;;;;11.44;36.32;100418.67;1743780;80;21088;-74
2022/03/24 05:51:52;;;;;;;43.73;35.07;;;;;;;11.37;36.52;100432.45;1741803;80;21069;-73
2022/03/24 05:54:24;;;;;;;42.27;33.23;;;;;;;11.29;36.74;100430.74;1755108;80;21112;-76
2022/03/24 05:56:53;;;;;;;48.10;33.33;;;;;;;11.20;36.84;100419.87;1739649;80;21032;-76
2022/03/24 05:59:19;;;;;;;41.90;32.70;;;;;;;11.12;37.34;100424.83;1742993;80;21061;-74
2022/03/24 06:01:47;;;;;;;46.63;30.10;;;;;;;11.37;36.86;100419.11;1737699;80;21477;-76
2022/03/24 06:04:15;;;;;;;39.60;30.20;;;;;;;11.64;36.20;100406.80;1740555;80;21037;-76
2022/03/24 06:06:44;;;;;;;38.57;31.70;;;;;;;11.88;35.64;100417.08;1724127;80;21090;-75
2022/03/24 06:09:12;;;;;;;44.83;32.20;;;;;;;12.12;35.60;100422.18;1748466;80;21100;-75
2022/03/24 06:11:39;;;;;;;36.97;30.43;;;;;;;12.40;35.11;100420.80;1749588;80;21232;-75
2022/03/24 06:14:12;;;;;;;43.13;29.90;;;;;;;12.59;34.72;100420.56;1751721;81;21214;-75
2022/03/24 06:16:40;;;;;;;45.17;29.37;;;;;;;12.74;34.25;100413.22;1741875;80;21068;-74
2022/03/24 06:19:09;;;;;;;52.80;30.57;;;;;;;12.51;34.40;100424.73;1750277;80;21140;-76
2022/03/24 06:21:38;;;;;;;35.80;27.53;;;;;;;12.22;34.90;100420.81;1727446;80;21013;-75
2022/03/24 06:24:07;;;;;;;36.93;26.37;;;;;;;12.14;35.24;100426.30;1753592;79;21127;-74
2022/03/24 06:26:34;;;;;;;33.10;25.13;;;;;;;12.12;35.01;100414.98;1734711;80;21509;-75
2022/03/24 06:29:02;;;;;;;38.73;28.40;;;;;;;11.94;35.53;100431.53;1743539;80;21077;-74
2022/03/24 06:31:30;;;;;;;40.73;28.93;;;;;;;11.72;35.85;100430.71;1745082;80;21087;-76
2022/03/24 06:33:58;;;;;;;36.33;27.43;;;;;;;11.71;35.87;100429.56;1700619;82;21036;-74
2022/03/24 06:36:25;;;;;;;35.53;26.53;;;;;;;11.81;35.81;100419.36;1718827;82;21041;-74
2022/03/24 06:38:53;;;;;;;29.43;24.93;;;;;;;12.03;35.43;100431.66;1718584;82;21112;-74
2022/03/24 06:41:22;;;;;;;27.97;24.17;;;;;;;12.01;35.41;100429.70;1715215;82;21569;-75
2022/03/24 06:43:50;;;;;;;29.90;25.30;;;;;;;11.99;35.49;100421.06;1703176;82;21033;-75
2022/03/24 06:46:18;;;;;;;33.63;25.30;;;;;;;11.77;35.64;100430.97;1737501;80;20990;-76
2022/03/24 06:48:46;;;;;;;27.10;23.43;;;;;;;11.34;36.30;100432.83;1743351;80;21030;-69
2022/03/24 06:51:16;;;;;;;30.77;24.40;;;;;;;10.77;37.33;100426.48;1739372;80;21539;-74
2022/03/24 06:53:43;;;;;;;29.77;23.03;;;;;;;9.91;38.25;100383.86;1739260;80;21034;-67
2022/03/24 06:56:10;;;;;;;31.23;24.00;;;;;;;9.76;39.59;100437.59;1740486;80;21116;-68
2022/03/24 06:58:38;;;;;;;28.87;22.83;;;;;;;9.46;40.33;100437.51;1748089;80;21053;-68
2022/03/24 07:01:05;;;;;;;34.90;23.57;;;;;;;9.31;40.74;100439.30;1748863;80;21561;-68
2022/03/24 07:03:33;;;;;;;30.00;23.10;;;;;;;9.05;41.19;100441.78;1744423;80;21038;-68
2022/03/24 07:06:01;;;;;;;30.33;24.30;;;;;;;8.73;42.02;100446.78;1737998;80;21088;-67
2022/03/24 07:08:28;;;;;;;28.90;22.30;;;;;;;8.51;42.31;100449.21;1746125;80;21065;-67
2022/03/24 07:10:57;;;;;;;30.50;23.27;;;;;;;8.38;43.07;100446.21;1745508;80;21112;-65
2022/03/24 07:13:26;;;;;;;30.40;21.60;;;;;;;8.29;43.17;100453.39;1753120;80;21120;-69
2022/03/24 07:15:54;;;;;;;28.30;22.27;;;;;;;8.24;43.36;100454.91;1746693;80;21053;-67
2022/03/24 07:18:22;;;;;;;28.13;21.60;;;;;;;8.23;43.58;100458.55;1747878;80;21894;-70
2022/03/24 07:20:50;;;;;;;25.83;18.90;;;;;;;8.09;43.97;100440.98;1749427;80;21062;-68
2022/03/24 07:23:19;;;;;;;26.67;20.43;;;;;;;7.97;44.34;100448.48;1730339;80;21537;-66
2022/03/24 07:25:46;;;;;;;23.10;20.63;;;;;;;7.96;44.39;100453.45;1720366;81;21030;-73
2022/03/24 07:28:14;;;;;;;28.33;21.73;;;;;;;7.96;44.67;100451.30;1715504;81;21573;-70
2022/03/24 07:30:43;;;;;;;25.43;22.20;;;;;;;8.00;44.51;100448.63;1719021;82;21081;-69
2022/03/24 07:33:11;;;;;;;24.30;20.40;;;;;;;8.03;44.63;100452.80;1713098;81;22347;-67
2022/03/24 07:35:39;;;;;;;29.60;21.90;;;;;;;8.09;44.53;100453.44;1692803;83;21029;-67
2022/03/24 07:38:07;;;;;;;;;;;;;;;8.19;44.28;100452.27;1689579;83;21045;-71
2022/03/24 07:40:36;;;;;;;29.70;19.60;;;;;;;8.24;44.28;100450.92;1687700;83;20478;-66
2022/03/24 07:43:05;;;;;;;28.57;21.10;;;;;;;8.19;44.58;100451.41;1687143;83;21560;-66
2022/03/24 07:45:37;;;;;;;28.70;23.30;;;;;;;8.21;44.57;100451.25;1715633;81;21013;-71
2022/03/24 07:48:18;;;;;;;31.27;22.03;;;;;;;8.16;44.66;100441.97;1687293;83;22202;-68
2022/03/24 07:50:49;;;;;;;24.27;20.43;;;;;;;8.23;44.54;100442.13;1725528;81;21089;-66
2022/03/24 07:53:30;;;;;;;26.03;21.13;;;;;;;8.36;44.46;100442.90;1727821;81;21042;-66
2022/03/24 07:55:59;;;;;;;25.50;21.00;;;;;;;8.45;44.27;100439.76;1720366;81;21155;-67
2022/03/24 07:58:27;;;;;;;24.23;19.10;;;;;;;8.45;44.24;100445.07;1720280;81;21169;-72
2022/03/24 08:00:57;;;;;;;27.00;21.47;;;;;;;8.50;44.41;100430.27;1664059;84;22175;-68
2022/03/24 08:03:24;;;;;;;23.07;19.43;;;;;;;8.64;43.89;100438.52;1729641;81;21208;-69
2022/03/24 08:05:53;;;;;;;28.70;18.47;;;;;;;8.70;43.50;100442.66;1727619;81;21039;-68
2022/03/24 08:08:20;;;;;;;23.07;18.63;;;;;;;8.68;43.30;100439.34;1729307;81;21080;-67
2022/03/24 08:10:51;;;;;;;19.70;16.30;;;;;;;8.63;43.17;100429.72;1731840;81;21146;-67
2022/03/24 08:13:20;;;;;;;21.43;19.07;;;;;;;8.50;43.52;100434.77;1729226;81;21607;-66
2022/03/24 08:15:49;;;;;;;22.23;16.97;;;;;;;8.49;43.59;100441.88;1738215;81;21481;-68
2022/03/24 08:18:17;;;;;;;20.90;18.03;;;;;;;8.53;43.83;100429.09;1736699;81;21109;-66
2022/03/24 08:20:49;;;;;;;23.43;17.37;;;;;;;8.66;43.66;100422.72;1737118;81;21069;-67
2022/03/24 08:23:17;;;;;;;19.07;15.93;;;;;;;8.81;43.43;100414.83;1730108;81;21053;-68
2022/03/24 08:25:46;;;;;;;21.27;16.10;;;;;;;8.94;43.07;100422.23;1723522;81;21043;-66
2022/03/24 08:28:14;;;;;;;21.23;16.33;;;;;;;9.02;43.04;100430.16;1718650;81;21086;-67
2022/03/24 08:30:45;;;;;;;17.80;14.90;;;;;;;9.14;42.71;100426.09;1728722;81;21058;-69
2022/03/24 08:33:12;;;;;;;18.47;14.60;;;;;;;9.19;42.34;100420.23;1723339;81;21092;-67
2022/03/24 08:35:41;;;;;;;22.37;15.03;;;;;;;9.23;42.02;100419.38;1678479;83;21016;-65
2022/03/24 08:38:10;;;;;;;15.23;12.50;;;;;;;9.27;42.12;100414.06;1731748;81;21074;-67
2022/03/24 08:40:37;;;;;;;18.80;11.70;;;;;;;9.37;41.91;100412.48;1724757;81;21050;-69
2022/03/24 08:43:06;;;;;;;17.17;11.47;;;;;;;9.45;41.43;100418.55;1664893;85;21054;-67
2022/03/24 08:45:37;;;;;;;12.93;11.23;;;;;;;9.47;41.43;100417.04;1728613;81;21098;-66
2022/03/24 08:48:06;;;;;;;12.10;10.80;;;;;;;9.49;41.28;100427.00;1725098;81;21014;-67
2022/03/24 08:50:35;;;;;;;15.83;11.37;;;;;;;9.52;41.23;100424.81;1734033;81;21086;-67
2022/03/24 08:53:04;;;;;;;16.93;11.30;;;;;;;9.54;41.27;100425.97;1721484;81;21025;-70
2022/03/24 08:55:32;;;;;;;19.67;12.17;;;;;;;9.51;41.33;100409.87;1717068;81;21011;-67
2022/03/24 08:57:59;;;;;;;16.23;12.67;;;;;;;9.62;40.72;100410.43;1704400;82;21026;-67
2022/03/24 09:00:26;;;;;;;17.43;13.13;;;;;;;9.68;40.62;100413.69;1697306;83;21645;-69
2022/03/24 09:02:54;;;;;;;23.00;16.37;;;;;;;9.76;40.23;100413.64;1705019;82;21129;-67
2022/03/24 09:05:23;;;;;;;22.33;15.90;;;;;;;9.85;40.00;100406.37;1703083;82;21098;-67
2022/03/24 09:07:51;;;;;;;22.00;16.03;;;;;;;9.89;39.37;100403.70;1714152;82;21045;-68
2022/03/24 09:10:18;;;;;;;22.47;17.60;;;;;;;9.87;39.36;100401.70;1708060;82;21097;-71
2022/03/24 09:12:47;;;;;;;19.33;15.70;;;;;;;9.87;38.98;100410.53;1691018;82;22145;-69
2022/03/24 09:15:18;;;;;;;20.90;14.70;;;;;;;9.83;38.75;100409.25;1690534;83;21110;-69
2022/03/24 09:17:47;;;;;;;26.60;18.47;;;;;;;9.78;38.77;100397.48;1684996;83;21040;-67
2022/03/24 09:20:18;;;;;;;26.00;18.40;;;;;;;9.78;38.69;100407.63;1647010;86;21074;-70
2022/03/24 09:22:48;;;;;;;24.20;16.00;;;;;;;9.81;38.82;100403.76;1660093;84;21100;-69
2022/03/24 09:25:16;;;;;;;25.23;14.77;;;;;;;9.89;38.55;100403.19;1666734;84;21046;-67
2022/03/24 09:27:45;;;;;;;23.80;16.23;;;;;;;9.92;37.67;100400.14;1671629;84;21006;-72
2022/03/24 09:30:15;;;;;;;22.60;15.43;;;;;;;9.95;37.63;100397.63;1657851;84;21134;-67
2022/03/24 09:32:45;;;;;;;25.63;18.00;;;;;;;9.99;37.55;100407.42;1662193;84;21015;-69
2022/03/24 09:35:13;;;;;;;24.07;17.03;;;;;;;10.05;37.44;100411.49;1657052;84;21014;-67
2022/03/24 09:37:42;;;;;;;23.97;16.97;;;;;;;10.13;37.68;100406.58;1651089;85;21050;-66
2022/03/24 09:40:11;;;;;;;18.47;14.97;;;;;;;10.15;36.97;100407.22;1670351;84;21124;-70
2022/03/24 09:42:39;;;;;;;19.57;14.83;;;;;;;10.11;36.84;100404.61;1687414;83;21059;-69
2022/03/24 09:45:11;;;;;;;13.90;12.43;;;;;;;10.15;36.63;100397.90;1694002;82;21036;-67
2022/03/24 09:47:39;;;;;;;14.27;11.40;;;;;;;10.24;35.90;100403.45;1697415;82;21019;-66
2022/03/24 09:50:09;;;;;;;14.43;11.90;;;;;;;10.31;35.87;100404.41;1694947;83;21741;-69
2022/03/24 09:52:37;;;;;;;12.53;10.73;;;;;;;10.37;35.83;100391.36;1697917;83;21631;-69
2022/03/24 09:55:06;;;;;;;19.90;11.47;;;;;;;10.48;35.81;100399.70;1694807;82;21148;-66
2022/03/24 09:57:33;;;;;;;17.03;10.93;;;;;;;10.55;35.68;100402.46;1703163;82;21084;-73
2022/03/24 10:00:03;;;;;;;18.07;10.23;;;;;;;10.51;35.84;100410.52;1699707;82;22154;-72
2022/03/24 10:02:33;;;;;;;13.60;11.27;;;;;;;10.43;35.59;100411.41;1696438;83;21045;-72
2022/03/24 10:05:01;;;;;;;13.10;11.23;;;;;;;10.33;35.22;100401.05;1701034;82;22330;-72
2022/03/24 10:07:45;;;;;;;13.07;11.30;;;;;;;10.27;35.37;100396.95;1693729;82;21266;-72
2022/03/24 10:10:25;;;;;;;12.43;11.17;;;;;;;10.28;35.45;100401.25;1699053;83;21025;-73
2022/03/24 10:12:52;;;;;;;19.50;13.60;;;;;;;10.22;35.48;100416.14;1688766;83;21036;-74
2022/03/24 10:15:20;;;;;;;20.37;14.03;;;;;;;10.13;35.55;100398.59;1700656;83;21321;-74
2022/03/24 10:17:56;;;;;;;23.43;15.03;;;;;;;10.04;35.71;100415.66;1697087;83;21076;-72
2022/03/24 10:20:30;;;;;;;24.00;14.67;;;;;;;9.96;35.55;100422.42;1696973;83;21195;-71
2022/03/24 10:23:01;;;;;;;25.90;14.57;;;;;;;9.90;35.72;100421.31;1691349;83;21066;-75
2022/03/24 10:25:33;;;;;;;15.07;13.40;;;;;;;9.85;35.91;100411.22;1669300;83;21035;-75
2022/03/24 10:28:14;;;;;;;17.80;14.50;;;;;;;9.84;36.00;100417.54;1682046;83;21498;-75
2022/03/24 10:30:51;;;;;;;14.53;12.37;;;;;;;9.92;36.03;100412.63;1678576;83;21031;-75
2022/03/24 10:33:37;;;;;;;13.47;11.60;;;;;;;10.03;35.68;100412.70;1671476;83;21054;-76
2022/03/24 10:36:19;;;;;;;19.33;11.63;;;;;;;10.06;35.54;100423.00;1678642;83;21009;-73
2022/03/24 10:38:49;;;;;;;15.20;12.07;;;;;;;10.06;35.66;100421.16;1678469;83;22166;-73
2022/03/24 10:41:23;;;;;;;17.03;12.83;;;;;;;10.10;35.45;100417.62;1674813;83;21068;-74
2022/03/24 10:43:54;;;;;;;21.93;15.70;;;;;;;10.05;35.49;100401.35;1679131;83;21122;-75
2022/03/24 10:46:29;;;;;;;26.30;17.67;;;;;;;9.97;35.36;100413.44;1674568;83;21109;-75
2022/03/24 10:49:02;;;;;;;24.17;18.60;;;;;;;9.75;35.58;100417.29;1677707;83;21051;-74
2022/03/24 10:51:33;;;;;;;22.30;18.27;;;;;;;9.45;35.65;100418.55;1662266;83;21104;-72
2022/03/24 10:54:27;;;;;;;24.37;19.17;;;;;;;9.26;35.93;100421.19;1688530;83;21115;-73
2022/03/24 10:57:10;;;;;;;21.50;16.93;;;;;;;9.18;35.89;100416.45;1667555;83;21577;-72
2022/03/24 10:59:46;;;;;;;25.17;19.30;;;;;;;9.16;35.92;100418.77;1669596;84;21035;-74
2022/03/24 11:02:15;;;;;;;23.20;19.67;;;;;;;9.23;35.88;100418.05;1654731;84;21036;-72
2022/03/24 11:04:43;;;;;;;26.20;20.77;;;;;;;9.30;35.81;100406.52;1665118;84;21714;-73
2022/03/24 11:07:09;;;;;;;27.50;20.80;;;;;;;9.36;35.90;100418.28;1661091;84;21126;-75
2022/03/24 11:09:38;;;;;;;24.43;19.90;;;;;;;9.43;35.55;100411.25;1664673;84;21102;-72
2022/03/24 11:12:36;;;;;;;21.83;18.50;;;;;;;9.41;35.37;100411.11;1669163;83;21164;-74
2022/03/24 11:15:06;;;;;;;20.83;17.80;;;;;;;9.38;35.63;100416.30;1680547;83;21155;-72
2022/03/24 11:17:36;;;;;;;25.20;18.33;;;;;;;9.41;35.50;100413.27;1654626;85;21098;-74
2022/03/24 11:20:11;;;;;;;26.00;21.23;;;;;;;9.42;35.40;100416.27;1641598;85;21129;-75
2022/03/24 11:23:13;;;;;;;25.83;22.27;;;;;;;9.40;35.43;100415.62;1657684;84;21022;-74
2022/03/24 11:25:40;;;;;;;29.87;22.73;;;;;;;9.31;35.59;100415.35;1655806;85;21112;-75
2022/03/24 11:28:09;;;;;;;24.93;20.80;;;;;;;9.23;35.64;100414.91;1650636;85;21066;-74